createdAt,value
2022-10-18T00:00:52.309Z,98.72
2022-10-18T00:03:20.079Z,99.54
2022-10-18T00:05:48.046Z,99.05
2022-10-18T00:08:16.062Z,99.54
2022-10-18T00:10:45.598Z,99.37
2022-10-18T00:13:13.587Z,99.22
2022-10-18T00:15:41.471Z,98.74
2022-10-18T00:18:09.206Z,98.89
2022-10-18T00:20:36.931Z,98.52
2022-10-18T00:23:04.667Z,98.27
2022-10-18T00:25:32.406Z,98.04
2022-10-18T00:28:01.528Z,98.06
2022-10-18T00:30:29.313Z,98.09
2022-10-18T00:32:57.042Z,98.61
2022-10-18T00:35:24.917Z,98.53
2022-10-18T00:37:52.631Z,99.21
2022-10-18T00:40:20.362Z,99.06
2022-10-18T00:42:48.079Z,99.52
2022-10-18T00:45:21.610Z,100.00
2022-10-18T00:47:54.510Z,100.00
2022-10-18T00:50:24.035Z,100.00
2022-10-18T00:52:55.148Z,100.00
2022-10-18T00:55:23.329Z,100.00
2022-10-18T00:57:51.326Z,100.00
2022-10-18T01:00:20.870Z,100.00
2022-10-18T01:02:48.868Z,100.00
2022-10-18T01:05:19.067Z,100.00
2022-10-18T01:08:02.934Z,100.00
2022-10-18T01:10:36.507Z,100.00
2022-10-18T01:13:14.869Z,100.00
2022-10-18T01:15:50.817Z,100.00
2022-10-18T01:18:26.229Z,100.00
2022-10-18T01:21:08.828Z,100.00
2022-10-18T01:23:55.303Z,100.00
2022-10-18T01:26:38.028Z,100.00
2022-10-18T01:29:18.829Z,100.00
2022-10-18T01:31:51.066Z,100.00
2022-10-18T01:34:20.993Z,100.00
2022-10-18T01:36:53.113Z,100.00
2022-10-18T01:39:25.533Z,100.00
2022-10-18T01:41:55.870Z,100.00
2022-10-18T01:44:27.648Z,100.00
2022-10-18T01:46:58.507Z,100.00
2022-10-18T01:49:27.470Z,100.00
2022-10-18T01:51:55.219Z,100.00
2022-10-18T01:54:27.340Z,100.00
2022-10-18T01:56:59.893Z,100.00
2022-10-18T01:59:40.521Z,100.00
2022-10-18T02:02:20.010Z,100.00
2022-10-18T02:04:55.436Z,100.00
2022-10-18T02:07:33.824Z,100.00
2022-10-18T02:10:09.035Z,100.00
2022-10-18T02:12:40.706Z,100.00
2022-10-18T02:15:09.984Z,100.00
2022-10-18T02:17:41.001Z,100.00
2022-10-18T02:20:10.079Z,100.00
2022-10-18T02:22:39.364Z,100.00
2022-10-18T02:25:14.603Z,100.00
2022-10-18T02:27:42.490Z,100.00
2022-10-18T02:30:11.571Z,100.00
2022-10-18T02:32:45.361Z,100.00
2022-10-18T02:35:21.049Z,100.00
2022-10-18T02:37:51.385Z,100.00
2022-10-18T02:40:19.660Z,100.00
2022-10-18T02:42:49.875Z,100.00
2022-10-18T02:45:18.650Z,100.00
2022-10-18T02:47:47.793Z,100.00
2022-10-18T02:50:16.020Z,100.00
2022-10-18T02:52:43.736Z,100.00
2022-10-18T02:55:12.073Z,100.00
2022-10-18T02:57:39.790Z,100.00
2022-10-18T03:00:08.690Z,100.00
2022-10-18T03:02:36.650Z,100.00
2022-10-18T03:05:06.402Z,100.00
2022-10-18T03:07:34.312Z,100.00
2022-10-18T03:10:02.270Z,100.00
2022-10-18T03:12:30.007Z,100.00
2022-10-18T03:14:57.705Z,100.00
2022-10-18T03:17:25.532Z,100.00
2022-10-18T03:19:53.277Z,100.00
2022-10-18T03:22:22.790Z,100.00
2022-10-18T03:24:50.535Z,100.00
2022-10-18T03:27:18.295Z,100.00
2022-10-18T03:29:46.014Z,100.00
2022-10-18T03:32:13.756Z,100.00
2022-10-18T03:34:41.525Z,100.00
2022-10-18T03:37:09.699Z,100.00
2022-10-18T03:39:38.793Z,100.00
2022-10-18T03:42:06.499Z,100.00
2022-10-18T03:44:34.231Z,100.00
2022-10-18T03:47:01.961Z,100.00
2022-10-18T03:49:29.736Z,100.00
2022-10-18T03:51:57.514Z,100.00
2022-10-18T03:54:25.282Z,100.00
2022-10-18T03:56:54.345Z,100.00
2022-10-18T03:59:22.625Z,100.00
2022-10-18T04:01:50.553Z,100.00
2022-10-18T04:04:18.380Z,100.00
2022-10-18T04:06:46.349Z,100.00
2022-10-18T04:09:14.126Z,100.00
2022-10-18T04:11:41.985Z,100.00
2022-10-18T04:14:11.121Z,100.00
2022-10-18T04:16:38.889Z,100.00
2022-10-18T04:19:06.602Z,100.00
2022-10-18T04:21:34.415Z,100.00
2022-10-18T04:24:02.151Z,100.00
2022-10-18T04:26:29.909Z,99.95
2022-10-18T04:28:57.671Z,99.81
2022-10-18T04:31:26.842Z,99.64
2022-10-18T04:33:54.955Z,99.63
2022-10-18T04:36:22.698Z,99.43
2022-10-18T04:38:50.456Z,99.01
2022-10-18T04:41:18.241Z,98.96
2022-10-18T04:46:18.665Z,98.65
2022-10-18T04:48:47.784Z,98.55
2022-10-18T04:51:15.564Z,98.51
2022-10-18T04:53:43.253Z,98.53
2022-10-18T04:56:10.964Z,99.28
2022-10-18T04:58:38.724Z,99.92
2022-10-18T05:01:07.375Z,100.00
2022-10-18T05:03:35.216Z,100.00
2022-10-18T05:06:05.395Z,100.00
2022-10-18T05:08:34.634Z,99.92
2022-10-18T05:11:02.972Z,100.00
2022-10-18T05:13:31.138Z,100.00
2022-10-18T05:16:00.684Z,100.00
2022-10-18T05:18:28.603Z,100.00
2022-10-18T05:20:56.315Z,100.00
2022-10-18T05:23:25.785Z,100.00
2022-10-18T05:25:53.489Z,100.00
2022-10-18T05:28:38.645Z,99.79
2022-10-18T05:31:08.766Z,99.50
2022-10-18T05:33:36.601Z,99.64
2022-10-18T05:36:04.679Z,99.73
2022-10-18T05:38:33.844Z,99.97
2022-10-18T05:41:05.379Z,99.81
2022-10-18T05:43:33.119Z,99.63
2022-10-18T05:46:00.832Z,99.46
2022-10-18T05:48:28.602Z,99.24
2022-10-18T05:50:59.077Z,99.30
2022-10-18T05:53:42.431Z,99.32
2022-10-18T05:56:12.361Z,99.39
2022-10-18T05:58:40.973Z,99.38
2022-10-18T06:01:09.891Z,99.45
2022-10-18T06:03:37.972Z,99.23
2022-10-18T06:06:07.965Z,99.62
2022-10-18T06:09:03.612Z,100.00
2022-10-18T06:11:38.171Z,100.00
2022-10-18T06:14:06.227Z,100.00
2022-10-18T06:16:34.076Z,100.00
2022-10-18T06:19:01.882Z,100.00
2022-10-18T06:21:29.706Z,100.00
2022-10-18T06:23:59.098Z,100.00
2022-10-18T06:26:28.059Z,100.00
2022-10-18T06:28:57.347Z,100.00
2022-10-18T06:31:25.095Z,100.00
2022-10-18T06:33:52.833Z,100.00
2022-10-18T06:36:22.385Z,100.00
2022-10-18T06:38:50.373Z,100.00
2022-10-18T06:41:19.259Z,100.00
2022-10-18T06:43:49.587Z,100.00
2022-10-18T06:46:18.778Z,100.00
2022-10-18T06:48:46.980Z,100.00
2022-10-18T06:51:15.187Z,100.00
2022-10-18T06:58:00.950Z,100.00
2022-10-18T07:03:34.702Z,100.00
2022-10-18T07:06:03.382Z,100.00
2022-10-18T07:15:34.940Z,100.00
2022-10-18T07:18:45.039Z,99.11
2022-10-18T07:21:16.049Z,97.09
2022-10-18T07:23:45.959Z,96.41
2022-10-18T07:26:15.699Z,94.94
2022-10-18T07:28:45.778Z,91.66
2022-10-18T07:31:14.195Z,91.20
2022-10-18T07:33:43.173Z,90.75
2022-10-18T07:36:12.611Z,90.16
2022-10-18T07:38:42.115Z,87.78
2022-10-18T07:41:13.074Z,83.94
2022-10-18T07:43:43.808Z,81.72
2022-10-18T07:46:11.564Z,79.05
2022-10-18T07:48:39.424Z,76.30
2022-10-18T07:51:07.477Z,70.67
2022-10-18T07:53:35.525Z,71.47
2022-10-18T07:56:08.751Z,72.41
2022-10-18T07:58:37.452Z,70.62
2022-10-18T08:01:07.113Z,69.14
2022-10-18T08:03:39.305Z,70.03
2022-10-18T08:06:09.133Z,65.60
2022-10-18T08:08:39.326Z,63.32
2022-10-18T08:11:10.995Z,60.54
2022-10-18T08:13:38.762Z,60.08
2022-10-18T08:16:08.949Z,60.37
2022-10-18T08:18:38.052Z,59.94
2022-10-18T08:21:07.696Z,60.23
2022-10-18T08:23:36.604Z,60.17
2022-10-18T08:26:05.797Z,61.06
2022-10-18T08:28:36.710Z,60.84
2022-10-18T08:31:05.107Z,61.50
2022-10-18T08:33:33.318Z,64.02
2022-10-18T08:36:05.860Z,65.97
2022-10-18T08:38:34.731Z,66.72
2022-10-18T08:41:14.367Z,66.90
2022-10-18T08:43:48.180Z,67.53
2022-10-18T08:46:16.012Z,67.65
2022-10-18T08:48:48.628Z,69.85
2022-10-18T08:51:28.153Z,70.79
2022-10-18T08:54:03.101Z,69.92
2022-10-18T08:56:32.163Z,70.21
2022-10-18T08:59:03.160Z,70.37
2022-10-18T09:01:41.706Z,68.86
2022-10-18T09:04:25.469Z,69.74
2022-10-18T09:07:08.838Z,69.11
2022-10-18T09:09:44.622Z,69.56
2022-10-18T09:12:36.999Z,69.30
2022-10-18T09:15:14.620Z,66.86
2022-10-18T09:17:55.746Z,67.03
2022-10-18T09:20:28.625Z,65.00
2022-10-18T09:23:00.360Z,65.27
2022-10-18T09:25:36.402Z,64.59
2022-10-18T09:28:16.850Z,63.46
2022-10-18T09:30:57.222Z,61.95
2022-10-18T09:33:36.652Z,61.44
2022-10-18T09:36:07.209Z,62.22
2022-10-18T09:38:43.870Z,60.22
2022-10-18T09:41:17.928Z,57.83
2022-10-18T09:43:53.251Z,59.18
2022-10-18T09:46:28.847Z,55.64
2022-10-18T09:49:01.356Z,57.04
2022-10-18T09:51:34.875Z,56.47
2022-10-18T09:54:15.624Z,54.83
2022-10-18T09:56:49.792Z,56.46
2022-10-18T09:59:36.938Z,55.00
2022-10-18T10:02:07.402Z,55.07
2022-10-18T10:04:35.229Z,55.76
2022-10-18T10:07:03.551Z,54.06
2022-10-18T10:09:37.796Z,51.83
2022-10-18T10:12:05.970Z,48.27
2022-10-18T10:14:44.889Z,47.36
2022-10-18T10:17:25.280Z,45.52
2022-10-18T10:20:00.036Z,45.45
2022-10-18T10:22:31.637Z,44.01
2022-10-18T10:24:59.855Z,42.18
2022-10-18T10:27:32.724Z,41.57
2022-10-18T10:30:06.804Z,41.86
2022-10-18T10:32:47.974Z,41.50
2022-10-18T10:35:33.885Z,40.51
2022-10-18T10:38:24.126Z,41.56
2022-10-18T10:40:51.874Z,41.10
2022-10-18T10:43:40.467Z,40.50
2022-10-18T10:46:10.544Z,39.76
2022-10-18T10:48:48.333Z,39.24
2022-10-18T10:51:21.218Z,38.71
2022-10-18T10:53:52.564Z,37.46
2022-10-18T10:56:27.279Z,36.79
2022-10-18T10:58:56.799Z,36.17
2022-10-18T11:01:33.677Z,37.17
2022-10-18T11:04:24.742Z,37.54
2022-10-18T11:07:04.832Z,35.78
2022-10-18T11:09:46.561Z,35.88
2022-10-18T11:12:27.752Z,36.02
2022-10-18T11:15:05.453Z,34.76
2022-10-18T11:17:40.660Z,35.10
2022-10-18T11:20:24.142Z,35.19
2022-10-18T11:23:01.150Z,34.06
2022-10-18T11:26:15.271Z,34.39
2022-10-18T11:28:59.157Z,33.26
2022-10-18T11:31:33.586Z,33.37
2022-10-18T11:34:14.840Z,33.27
2022-10-18T11:36:56.470Z,33.55
2022-10-18T11:39:42.201Z,33.88
2022-10-18T11:42:20.282Z,35.21
2022-10-18T11:44:58.206Z,33.69
2022-10-18T11:47:36.991Z,33.14
2022-10-18T11:50:14.995Z,32.16
2022-10-18T11:52:55.019Z,31.07
2022-10-18T11:55:37.797Z,32.52
2022-10-18T11:58:24.468Z,32.92
2022-10-18T12:00:59.841Z,33.04
2022-10-18T12:03:38.509Z,31.71
2022-10-18T12:06:13.402Z,31.24
2022-10-18T12:08:45.261Z,31.12
2022-10-18T12:11:17.433Z,32.25
2022-10-18T12:13:50.730Z,32.88
2022-10-18T12:16:45.613Z,33.45
2022-10-18T12:19:25.208Z,33.63
2022-10-18T12:21:57.406Z,32.60
2022-10-18T12:24:29.624Z,31.81
2022-10-18T12:27:00.235Z,32.62
2022-10-18T12:29:30.961Z,32.88
2022-10-18T12:32:02.073Z,30.45
2022-10-18T12:34:36.525Z,30.44
2022-10-18T12:37:26.357Z,31.11
2022-10-18T12:40:09.784Z,31.09
2022-10-18T12:42:45.649Z,31.65
2022-10-18T12:45:27.524Z,31.28
2022-10-18T12:47:59.503Z,30.10
2022-10-18T12:50:33.908Z,29.67
2022-10-18T12:53:05.432Z,29.85
2022-10-18T12:55:38.491Z,29.75
2022-10-18T12:58:23.733Z,30.85
2022-10-18T13:01:01.210Z,30.69
2022-10-18T13:03:41.895Z,30.63
2022-10-18T13:06:09.838Z,29.37
2022-10-18T13:08:43.035Z,29.02
2022-10-18T13:11:35.731Z,30.13
2022-10-18T13:14:24.729Z,29.45
2022-10-18T13:16:58.561Z,29.44
2022-10-18T13:19:34.623Z,29.63
2022-10-18T13:22:19.881Z,30.13
2022-10-18T13:25:01.785Z,30.36
2022-10-18T13:27:40.451Z,30.36
2022-10-18T13:30:34.624Z,31.40
2022-10-18T13:33:10.532Z,31.83
2022-10-18T13:35:55.521Z,29.84
2022-10-18T13:38:48.329Z,30.06
2022-10-18T13:41:19.842Z,29.42
2022-10-18T13:44:30.430Z,30.77
2022-10-18T13:47:34.953Z,30.46
2022-10-18T13:50:28.079Z,30.32
2022-10-18T13:53:23.300Z,30.69
2022-10-18T13:55:59.811Z,31.53
2022-10-18T13:58:44.612Z,29.95
2022-10-18T14:01:29.978Z,30.96
2022-10-18T14:04:45.708Z,29.34
2022-10-18T14:07:14.119Z,29.52
2022-10-18T14:09:54.893Z,29.45
2022-10-18T14:12:30.320Z,28.75
2022-10-18T14:15:06.349Z,28.15
2022-10-18T14:17:43.250Z,30.09
2022-10-18T14:20:27.353Z,31.31
2022-10-18T14:23:03.615Z,31.72
2022-10-18T14:25:35.510Z,34.25
2022-10-18T14:28:14.234Z,34.67
2022-10-18T14:30:57.591Z,36.04
2022-10-18T14:33:29.482Z,35.77
2022-10-18T14:36:02.307Z,36.08
2022-10-18T14:38:31.051Z,36.19
2022-10-18T14:41:16.464Z,36.72
2022-10-18T14:43:46.103Z,36.83
2022-10-18T14:46:22.013Z,37.91
2022-10-18T14:48:57.824Z,38.48
2022-10-18T14:51:26.236Z,40.12
2022-10-18T14:53:54.986Z,40.64
2022-10-18T14:56:27.528Z,39.84
2022-10-18T14:58:58.454Z,39.81
2022-10-18T15:01:29.324Z,39.61
2022-10-18T15:04:01.061Z,40.07
2022-10-18T15:06:28.925Z,40.56
2022-10-18T15:08:58.878Z,40.42
2022-10-18T15:11:28.254Z,40.45
2022-10-18T15:13:58.459Z,40.19
2022-10-18T15:16:28.812Z,40.64
2022-10-18T15:19:07.137Z,41.29
2022-10-18T15:21:36.654Z,41.16
2022-10-18T15:24:21.778Z,41.19
2022-10-18T15:26:51.101Z,41.32
2022-10-18T15:29:21.010Z,39.81
2022-10-18T15:31:51.056Z,40.05
2022-10-18T15:34:23.446Z,40.69
2022-10-18T15:36:53.014Z,41.72
2022-10-18T15:39:23.214Z,43.08
2022-10-18T15:41:52.672Z,43.68
2022-10-18T15:44:26.998Z,44.87
2022-10-18T15:46:56.690Z,45.68
2022-10-18T15:49:59.936Z,46.16
2022-10-18T15:52:38.669Z,47.73
2022-10-18T15:55:49.325Z,47.93
2022-10-18T15:58:25.722Z,48.86
2022-10-18T16:00:56.317Z,49.42
2022-10-18T16:03:24.890Z,50.71
2022-10-18T16:06:00.357Z,51.32
2022-10-18T16:08:30.487Z,51.40
2022-10-18T16:10:58.880Z,52.69
2022-10-18T16:13:27.290Z,52.82
2022-10-18T16:15:56.631Z,52.57
2022-10-18T16:18:27.899Z,53.08
2022-10-18T16:20:57.926Z,52.77
2022-10-18T16:23:28.513Z,52.72
2022-10-18T16:25:56.820Z,53.34
2022-10-18T16:28:26.652Z,53.95
2022-10-18T16:30:57.468Z,54.91
2022-10-18T16:33:26.219Z,54.92
2022-10-18T16:35:55.416Z,55.13
2022-10-18T16:38:32.787Z,55.55
2022-10-18T16:41:03.782Z,56.11
2022-10-18T16:43:31.639Z,56.45
2022-10-18T16:45:59.373Z,57.38
2022-10-18T16:48:27.289Z,57.85
2022-10-18T16:50:56.593Z,58.20
2022-10-18T16:53:26.084Z,58.43
2022-10-18T16:55:57.207Z,59.30
2022-10-18T16:58:26.315Z,59.91
2022-10-18T17:00:54.515Z,60.28
2022-10-18T17:03:25.894Z,61.19
2022-10-18T17:05:54.205Z,61.42
2022-10-18T17:08:24.740Z,61.30
2022-10-18T17:10:56.200Z,62.26
2022-10-18T17:13:25.358Z,62.53
2022-10-18T17:15:54.166Z,63.02
2022-10-18T17:18:24.674Z,63.39
2022-10-18T17:20:52.450Z,64.53
2022-10-18T17:23:20.738Z,64.85
2022-10-18T17:26:04.649Z,64.35
2022-10-18T17:28:38.324Z,64.79
2022-10-18T17:31:09.842Z,65.26
2022-10-18T17:33:37.835Z,65.60
2022-10-18T17:36:06.381Z,65.62
2022-10-18T17:38:34.385Z,65.49
2022-10-18T17:41:07.390Z,65.29
2022-10-18T17:46:08.398Z,66.12
2022-10-18T17:48:36.214Z,66.04
2022-10-18T17:51:08.028Z,66.78
2022-10-18T17:53:36.172Z,67.15
2022-10-18T17:56:07.769Z,67.88
2022-10-18T17:58:36.165Z,68.29
2022-10-18T18:01:14.029Z,68.26
2022-10-18T18:03:42.450Z,67.94
2022-10-18T18:06:15.997Z,67.62
2022-10-18T18:08:43.808Z,67.08
2022-10-18T18:11:11.599Z,66.40
2022-10-18T18:13:39.472Z,66.89
2022-10-18T18:16:14.279Z,66.82
2022-10-18T18:18:42.866Z,67.76
2022-10-18T18:21:11.524Z,68.20
2022-10-18T18:23:39.284Z,69.05
2022-10-18T18:26:07.494Z,69.79
2022-10-18T18:28:36.108Z,70.78
2022-10-18T18:31:08.144Z,71.91
2022-10-18T18:33:37.925Z,72.67
2022-10-18T18:36:07.053Z,73.18
2022-10-18T18:38:36.830Z,72.83
2022-10-18T18:41:07.669Z,72.91
2022-10-18T18:43:35.731Z,73.13
2022-10-18T18:46:03.928Z,73.54
2022-10-18T18:48:33.549Z,73.09
2022-10-18T18:51:03.256Z,72.31
2022-10-18T18:53:31.464Z,72.19
2022-10-18T18:56:05.595Z,71.47
2022-10-18T18:58:34.849Z,71.64
2022-10-18T19:01:07.578Z,71.13
2022-10-18T19:03:36.839Z,71.46
2022-10-18T19:06:08.464Z,72.25
2022-10-18T19:08:38.075Z,72.69
2022-10-18T19:11:09.075Z,72.53
2022-10-18T19:13:37.535Z,71.89
2022-10-18T19:16:27.415Z,71.66
2022-10-18T19:18:59.165Z,71.85
2022-10-18T19:21:34.854Z,72.48
2022-10-18T19:24:06.705Z,72.13
2022-10-18T19:26:37.800Z,73.75
2022-10-18T19:29:09.042Z,73.72
2022-10-18T19:31:38.003Z,74.38
2022-10-18T19:34:07.647Z,74.05
2022-10-18T19:36:37.593Z,74.44
2022-10-18T19:39:07.572Z,74.11
2022-10-18T19:41:36.035Z,74.04
2022-10-18T19:44:03.826Z,74.50
2022-10-18T19:46:31.595Z,74.65
2022-10-18T19:48:59.293Z,74.70
2022-10-18T19:51:28.330Z,74.69
2022-10-18T19:53:58.373Z,75.04
2022-10-18T19:56:27.770Z,75.44
2022-10-18T19:58:55.850Z,75.79
2022-10-18T20:01:25.807Z,76.14
2022-10-18T20:03:53.923Z,75.84
2022-10-18T20:06:21.876Z,75.57
2022-10-18T20:08:49.977Z,75.22
2022-10-18T20:11:21.550Z,75.19
2022-10-18T20:13:49.984Z,75.39
2022-10-18T20:16:20.123Z,74.88
2022-10-18T20:18:49.951Z,74.62
2022-10-18T20:21:19.000Z,74.29
2022-10-18T20:23:46.733Z,73.66
2022-10-18T20:26:19.657Z,73.36
2022-10-18T20:28:56.027Z,73.79
2022-10-18T20:31:25.260Z,73.52
2022-10-18T20:33:56.349Z,73.62
2022-10-18T20:36:23.953Z,73.87
2022-10-18T20:38:51.707Z,74.70
2022-10-18T20:41:21.687Z,75.08
2022-10-18T20:43:53.479Z,75.61
2022-10-18T20:46:21.559Z,76.00
2022-10-18T20:48:50.222Z,75.97
2022-10-18T20:51:18.026Z,76.71
2022-10-18T20:53:46.669Z,76.91
2022-10-18T20:56:16.257Z,77.86
2022-10-18T20:58:45.670Z,78.40
2022-10-18T21:01:17.744Z,78.80
2022-10-18T21:03:47.932Z,78.49
2022-10-18T21:06:18.330Z,78.82
2022-10-18T21:08:46.180Z,79.62
2022-10-18T21:11:16.067Z,80.28
2022-10-18T21:13:43.815Z,80.69
2022-10-18T21:16:11.589Z,80.61
2022-10-18T21:18:41.032Z,81.31
2022-10-18T21:21:10.961Z,81.65
2022-10-18T21:23:38.922Z,82.08
2022-10-18T21:26:07.262Z,81.99
2022-10-18T21:28:35.673Z,82.25
2022-10-18T21:31:14.480Z,81.43
2022-10-18T21:33:45.367Z,81.12
2022-10-18T21:36:13.988Z,79.95
2022-10-18T21:38:45.564Z,79.73
2022-10-18T21:41:14.766Z,78.87
2022-10-18T21:43:44.119Z,78.33
2022-10-18T21:46:12.824Z,78.38
2022-10-18T21:48:46.102Z,78.39
2022-10-18T21:51:15.490Z,78.68
2022-10-18T21:53:44.325Z,78.54
2022-10-18T21:56:14.489Z,78.32
2022-10-18T21:58:42.862Z,77.81
2022-10-18T22:01:11.170Z,77.87
2022-10-18T22:03:39.798Z,78.45
2022-10-18T22:06:13.913Z,79.44
2022-10-18T22:08:42.165Z,79.65
2022-10-18T22:11:13.231Z,80.47
2022-10-18T22:13:42.485Z,80.43
2022-10-18T22:16:12.173Z,80.82
2022-10-18T22:18:39.870Z,81.02
2022-10-18T22:21:11.073Z,81.31
2022-10-18T22:23:41.752Z,81.75
2022-10-18T22:26:12.163Z,81.95
2022-10-18T22:28:41.593Z,81.96
2022-10-18T22:31:16.912Z,82.43
2022-10-18T22:33:45.124Z,82.75
2022-10-18T22:36:16.733Z,83.00
2022-10-18T22:38:44.442Z,83.37
2022-10-18T22:41:14.308Z,83.43
2022-10-18T22:43:42.145Z,83.23
2022-10-18T22:46:12.697Z,82.92
2022-10-18T22:48:40.970Z,81.89
2022-10-18T22:51:09.313Z,81.44
2022-10-18T22:53:39.838Z,80.87
2022-10-18T22:56:08.729Z,80.57
2022-10-18T22:58:36.659Z,80.40
2022-10-18T23:01:07.561Z,81.27
2022-10-18T23:03:35.670Z,81.61
2022-10-18T23:06:04.237Z,82.03
2022-10-18T23:08:32.837Z,82.26
2022-10-18T23:11:02.901Z,82.43
2022-10-18T23:13:30.653Z,82.73
2022-10-18T23:16:04.626Z,83.05
2022-10-18T23:18:33.939Z,83.10
2022-10-18T23:21:05.401Z,83.38
2022-10-18T23:23:35.462Z,83.11
2022-10-18T23:26:06.445Z,82.82
2022-10-18T23:28:35.761Z,82.66
2022-10-18T23:31:11.573Z,82.46
2022-10-18T23:33:39.865Z,82.52
2022-10-18T23:36:09.432Z,82.32
2022-10-18T23:38:38.928Z,82.30
2022-10-18T23:41:10.621Z,82.31
2022-10-18T23:43:39.574Z,81.89
2022-10-18T23:46:07.483Z,81.46
2022-10-18T23:48:35.448Z,81.06
2022-10-18T23:51:05.867Z,80.69
2022-10-18T23:53:34.618Z,80.38
2022-10-18T23:56:06.568Z,80.54
2022-10-18T23:58:36.865Z,81.04
